createdAt,value
2019-05-07T00:00:48.438Z,18.60
2019-05-07T00:03:17.257Z,18.03
2019-05-07T00:05:46.211Z,17.90
2019-05-07T00:08:14.956Z,18.70
2019-05-07T00:10:43.916Z,18.60
2019-05-07T00:13:12.989Z,18.27
2019-05-07T00:15:42.065Z,18.43
2019-05-07T00:18:12.734Z,16.60
2019-05-07T00:20:42.367Z,18.70
2019-05-07T00:23:12.407Z,18.30
2019-05-07T00:25:42.206Z,19.43
2019-05-07T00:28:12.225Z,19.00
2019-05-07T00:30:42.450Z,17.80
2019-05-07T00:33:13.171Z,18.23
2019-05-07T00:35:42.908Z,18.23
2019-05-07T00:38:12.886Z,18.63
2019-05-07T00:40:42.588Z,18.60
2019-05-07T00:43:12.077Z,17.70
2019-05-07T00:45:42.147Z,17.07
2019-05-07T00:48:12.642Z,18.17
2019-05-07T00:50:42.044Z,18.53
2019-05-07T00:53:13.086Z,18.57
2019-05-07T00:55:42.268Z,18.30
2019-05-07T00:58:13.239Z,17.97
2019-05-07T01:00:42.181Z,18.83
2019-05-07T01:03:12.891Z,19.03
2019-05-07T01:05:43.273Z,19.27
2019-05-07T01:08:13.205Z,19.17
2019-05-07T01:10:43.298Z,18.63
2019-05-07T01:13:12.542Z,19.23
2019-05-07T01:15:43.019Z,18.03
2019-05-07T01:18:12.472Z,18.23
2019-05-07T01:20:42.286Z,17.83
2019-05-07T01:23:13.337Z,18.00
2019-05-07T01:25:43.098Z,18.87
2019-05-07T01:28:13.230Z,20.37
2019-05-07T01:30:43.178Z,18.73
2019-05-07T01:33:12.291Z,17.93
2019-05-07T01:35:42.341Z,18.47
2019-05-07T01:38:12.320Z,19.93
2019-05-07T01:40:42.759Z,19.20
2019-05-07T01:43:12.154Z,19.87
2019-05-07T01:45:46.459Z,19.90
2019-05-07T01:48:11.792Z,18.57
2019-05-07T01:50:42.790Z,19.13
2019-05-07T01:53:12.233Z,19.43
2019-05-07T01:55:42.831Z,19.90
2019-05-07T01:58:12.613Z,19.67
2019-05-07T02:00:42.424Z,19.60
2019-05-07T02:03:12.111Z,19.60
2019-05-07T02:05:42.442Z,19.33
2019-05-07T02:08:12.416Z,23.83
2019-05-07T02:10:42.803Z,23.50
2019-05-07T02:13:12.595Z,21.80
2019-05-07T02:15:42.798Z,21.07
2019-05-07T02:18:12.594Z,22.93
2019-05-07T02:20:42.615Z,22.13
2019-05-07T02:23:12.849Z,22.23
2019-05-07T02:25:42.093Z,23.07
2019-05-07T02:28:12.737Z,21.80
2019-05-07T02:30:44.519Z,22.37
2019-05-07T02:33:13.734Z,20.50
2019-05-07T02:35:43.907Z,22.03
2019-05-07T02:38:13.723Z,21.90
2019-05-07T02:40:43.431Z,22.73
2019-05-07T02:43:14.102Z,20.87
2019-05-07T02:45:44.052Z,21.73
2019-05-07T02:48:13.042Z,23.37
2019-05-07T02:50:43.678Z,24.10
2019-05-07T02:53:13.310Z,21.40
2019-05-07T02:55:43.488Z,22.47
2019-05-07T02:58:13.700Z,23.63
2019-05-07T03:00:43.539Z,21.53
2019-05-07T03:03:13.848Z,22.50
2019-05-07T03:05:43.473Z,21.30
2019-05-07T03:08:13.378Z,21.83
2019-05-07T03:10:43.536Z,22.40
2019-05-07T03:13:13.710Z,19.73
2019-05-07T03:15:43.782Z,21.00
2019-05-07T03:18:13.908Z,22.93
2019-05-07T03:20:43.399Z,21.10
2019-05-07T03:23:13.336Z,21.00
2019-05-07T03:25:43.162Z,22.97
2019-05-07T03:28:13.605Z,20.93
2019-05-07T03:30:45.605Z,22.93
2019-05-07T03:33:16.163Z,22.00
2019-05-07T03:35:46.738Z,20.23
2019-05-07T03:38:13.856Z,21.67
2019-05-07T03:40:44.782Z,23.87
2019-05-07T03:43:14.165Z,23.07
2019-05-07T03:45:43.542Z,23.30
2019-05-07T03:48:13.557Z,23.97
2019-05-07T03:50:43.316Z,22.93
2019-05-07T03:53:14.348Z,21.43
2019-05-07T03:55:44.626Z,22.93
2019-05-07T03:58:14.633Z,22.73
2019-05-07T04:00:44.662Z,22.07
2019-05-07T04:03:18.747Z,22.77
2019-05-07T04:05:44.246Z,22.50
2019-05-07T04:08:13.465Z,22.00
2019-05-07T04:10:44.153Z,21.30
2019-05-07T04:13:13.647Z,21.50
2019-05-07T04:15:43.873Z,21.60
2019-05-07T04:18:13.526Z,21.23
2019-05-07T04:20:43.462Z,21.47
2019-05-07T04:23:13.894Z,20.97
2019-05-07T04:25:43.534Z,22.80
2019-05-07T04:28:14.160Z,21.40
2019-05-07T04:30:43.883Z,20.73
2019-05-07T04:33:13.212Z,19.37
2019-05-07T04:35:43.478Z,19.60
2019-05-07T04:38:13.715Z,19.20
2019-05-07T04:40:43.514Z,18.97
2019-05-07T04:43:13.668Z,19.33
2019-05-07T04:45:43.409Z,19.80
2019-05-07T04:48:14.224Z,19.43
2019-05-07T04:50:47.344Z,17.90
2019-05-07T04:53:13.979Z,18.47
2019-05-07T04:55:43.223Z,19.80
2019-05-07T04:58:14.107Z,19.07
2019-05-07T05:00:43.364Z,18.03
2019-05-07T05:03:12.909Z,16.27
2019-05-07T05:05:43.527Z,18.10
2019-05-07T05:08:13.464Z,17.87
2019-05-07T05:10:43.312Z,18.40
2019-05-07T05:13:13.070Z,17.93
2019-05-07T05:15:43.073Z,16.93
2019-05-07T05:18:12.754Z,15.97
2019-05-07T05:20:42.233Z,16.90
2019-05-07T05:23:12.130Z,15.43
2019-05-07T05:25:43.172Z,16.23
2019-05-07T05:28:12.401Z,15.33
2019-05-07T05:30:42.975Z,15.73
2019-05-07T05:33:12.622Z,16.90
2019-05-07T05:35:43.130Z,16.73
2019-05-07T05:38:12.803Z,18.37
2019-05-07T05:40:42.764Z,19.60
2019-05-07T05:43:12.716Z,20.43
2019-05-07T05:45:42.598Z,21.33
2019-05-07T05:48:13.630Z,20.83
2019-05-07T05:50:42.365Z,19.87
2019-05-07T05:53:12.243Z,20.97
2019-05-07T05:55:42.808Z,20.47
2019-05-07T05:58:12.250Z,20.13
2019-05-07T06:00:42.276Z,21.63
2019-05-07T06:03:11.960Z,23.00
2019-05-07T06:05:42.011Z,20.87
2019-05-07T06:08:12.473Z,21.43
2019-05-07T06:10:42.491Z,20.57
2019-05-07T06:13:12.363Z,20.57
2019-05-07T06:15:42.008Z,20.10
2019-05-07T06:18:20.547Z,21.43
2019-05-07T06:20:42.872Z,20.23
2019-05-07T06:23:12.920Z,22.07
2019-05-07T06:25:42.832Z,21.23
2019-05-07T06:28:12.660Z,20.60
2019-05-07T06:30:41.788Z,22.47
2019-05-07T06:33:12.467Z,23.40
2019-05-07T06:35:42.901Z,23.60
2019-05-07T06:38:12.467Z,23.27
2019-05-07T06:40:42.349Z,22.13
2019-05-07T06:43:12.392Z,21.17
2019-05-07T06:45:42.200Z,21.63
2019-05-07T06:48:12.679Z,22.23
2019-05-07T06:50:43.099Z,25.93
2019-05-07T06:53:12.050Z,26.23
2019-05-07T06:55:42.679Z,27.93
2019-05-07T06:58:12.280Z,30.23
2019-05-07T07:00:42.213Z,33.37
2019-05-07T07:03:12.598Z,34.07
2019-05-07T07:05:42.492Z,31.97
2019-05-07T07:08:12.465Z,29.07
2019-05-07T07:10:42.638Z,27.87
2019-05-07T07:13:11.949Z,24.33
2019-05-07T07:15:42.567Z,24.10
2019-05-07T07:18:12.282Z,23.70
2019-05-07T07:20:42.817Z,22.23
2019-05-07T07:23:11.801Z,22.17
2019-05-07T07:25:40.260Z,23.27
2019-05-07T07:28:08.547Z,23.87
2019-05-07T07:30:36.930Z,22.23
2019-05-07T07:33:05.366Z,21.40
2019-05-07T07:35:33.684Z,21.10
2019-05-07T07:38:04.581Z,19.80
2019-05-07T07:40:32.970Z,20.27
2019-05-07T07:43:04.857Z,19.97
2019-05-07T07:45:32.451Z,22.20
2019-05-07T07:48:02.304Z,18.00
2019-05-07T07:50:32.363Z,19.20
2019-05-07T07:53:02.507Z,18.50
2019-05-07T07:55:37.128Z,18.50
2019-05-07T07:58:05.503Z,19.60
2019-05-07T08:00:33.953Z,18.73
2019-05-07T08:03:02.378Z,19.37
2019-05-07T08:05:32.565Z,19.33
2019-05-07T08:08:02.263Z,18.67
2019-05-07T08:10:32.524Z,18.17
2019-05-07T08:13:01.987Z,18.77
2019-05-07T08:15:32.858Z,18.60
2019-05-07T08:18:02.722Z,18.23
2019-05-07T08:20:32.620Z,18.33
2019-05-07T08:23:02.740Z,19.43
2019-05-07T08:25:32.166Z,16.87
2019-05-07T08:28:02.842Z,16.83
2019-05-07T08:30:32.621Z,16.47
2019-05-07T08:33:02.158Z,13.50
2019-05-07T08:35:32.571Z,17.30
2019-05-07T08:38:02.290Z,17.23
2019-05-07T08:40:32.575Z,17.50
2019-05-07T08:43:03.051Z,19.07
2019-05-07T08:45:32.621Z,17.47
2019-05-07T08:48:02.060Z,13.90
2019-05-07T08:50:32.581Z,14.53
2019-05-07T08:53:02.675Z,11.07
2019-05-07T08:55:32.216Z,12.23
2019-05-07T08:58:02.228Z,12.50
2019-05-07T09:00:32.428Z,16.67
2019-05-07T09:03:01.679Z,17.93
2019-05-07T09:05:32.203Z,17.83
2019-05-07T09:08:02.103Z,15.73
2019-05-07T09:10:32.313Z,16.37
2019-05-07T09:13:00.200Z,16.00
2019-05-07T09:15:28.555Z,15.63
2019-05-07T09:17:56.887Z,17.73
2019-05-07T09:20:25.242Z,16.80
2019-05-07T09:22:53.620Z,15.17
2019-05-07T09:25:22.387Z,17.10
2019-05-07T09:27:52.365Z,16.53
2019-05-07T09:30:22.067Z,16.50
2019-05-07T09:32:52.179Z,15.20
2019-05-07T09:35:21.661Z,15.20
2019-05-07T09:37:50.047Z,14.83
2019-05-07T09:40:18.407Z,16.67
2019-05-07T09:42:46.714Z,17.60
2019-05-07T09:45:15.072Z,16.77
2019-05-07T09:47:43.521Z,16.77
2019-05-07T09:50:12.306Z,15.83
2019-05-07T09:52:42.516Z,17.80
2019-05-07T09:55:16.421Z,15.90
2019-05-07T09:57:42.509Z,18.00
2019-05-07T10:00:12.323Z,16.33
2019-05-07T10:02:42.556Z,17.43
2019-05-07T10:05:11.120Z,16.03
2019-05-07T10:07:39.502Z,16.57
2019-05-07T10:10:08.261Z,13.87
2019-05-07T10:12:36.614Z,16.33
2019-05-07T10:15:05.906Z,15.80
2019-05-07T10:17:34.262Z,16.13
2019-05-07T10:20:17.890Z,16.23
2019-05-07T10:22:33.822Z,15.50
2019-05-07T10:25:02.835Z,16.10
2019-05-07T10:27:32.430Z,15.80
2019-05-07T10:30:02.428Z,15.50
2019-05-07T10:32:32.236Z,15.53
2019-05-07T10:35:02.213Z,15.73
2019-05-07T10:37:31.860Z,16.00
2019-05-07T10:40:02.870Z,15.30
2019-05-07T10:42:32.345Z,16.10
2019-05-07T10:45:02.940Z,15.37
2019-05-07T10:47:39.305Z,16.07
2019-05-07T10:50:07.687Z,15.23
2019-05-07T10:52:36.044Z,15.07
2019-05-07T10:55:04.427Z,15.97
2019-05-07T10:57:32.929Z,16.20
2019-05-07T11:00:03.159Z,14.80
2019-05-07T11:02:32.494Z,16.90
2019-05-07T11:05:02.315Z,15.07
2019-05-07T11:07:32.695Z,14.90
2019-05-07T11:10:01.973Z,15.40
2019-05-07T11:12:31.972Z,14.87
2019-05-07T11:15:02.208Z,14.73
2019-05-07T11:17:32.590Z,15.13
2019-05-07T11:20:00.798Z,15.37
2019-05-07T11:22:29.087Z,15.77
2019-05-07T11:24:57.483Z,15.30
2019-05-07T11:27:25.916Z,14.10
2019-05-07T11:29:54.280Z,13.97
2019-05-07T11:32:22.663Z,13.23
2019-05-07T11:34:52.874Z,13.03
2019-05-07T11:37:22.568Z,13.93
2019-05-07T11:39:52.333Z,14.03
2019-05-07T11:42:21.966Z,13.47
2019-05-07T11:44:52.151Z,14.93
2019-05-07T11:47:22.387Z,13.70
2019-05-07T11:49:52.345Z,13.70
2019-05-07T11:52:22.741Z,13.67
2019-05-07T11:54:52.453Z,15.32
2019-05-07T11:57:22.144Z,15.77
2019-05-07T11:59:51.625Z,13.67
2019-05-07T12:02:22.571Z,12.13
2019-05-07T12:04:52.225Z,12.63
2019-05-07T12:07:22.320Z,14.38
2019-05-07T12:09:52.620Z,12.30
2019-05-07T12:12:22.225Z,12.10
2019-05-07T12:14:51.817Z,12.40
2019-05-07T12:17:22.254Z,12.97
2019-05-07T12:19:52.561Z,12.20
2019-05-07T12:22:20.549Z,13.33
2019-05-07T12:24:48.839Z,14.55
2019-05-07T12:27:17.165Z,11.53
2019-05-07T12:29:45.520Z,11.43
2019-05-07T12:32:13.952Z,11.60
2019-05-07T12:34:42.429Z,12.27
2019-05-07T12:37:12.272Z,13.08
2019-05-07T12:39:42.359Z,12.33
2019-05-07T12:42:12.055Z,11.40
2019-05-07T12:44:42.525Z,12.10
2019-05-07T12:47:12.085Z,12.40
2019-05-07T12:49:42.733Z,13.70
2019-05-07T12:52:12.566Z,12.10
2019-05-07T12:54:42.103Z,12.83
2019-05-07T12:57:11.834Z,14.73
2019-05-07T12:59:42.454Z,13.17
2019-05-07T13:02:21.381Z,12.77
2019-05-07T13:04:41.811Z,11.60
2019-05-07T13:07:11.653Z,11.07
2019-05-07T13:09:40.102Z,10.03
2019-05-07T13:12:08.384Z,11.10
2019-05-07T13:14:36.668Z,11.83
2019-05-07T13:17:05.059Z,11.47
2019-05-07T13:19:33.436Z,12.30
2019-05-07T13:22:02.344Z,11.77
2019-05-07T13:24:32.077Z,12.43
2019-05-07T13:27:00.648Z,12.30
2019-05-07T13:29:29.028Z,12.20
2019-05-07T13:31:58.699Z,12.73
2019-05-07T13:34:27.055Z,12.37
2019-05-07T13:36:56.037Z,14.20
2019-05-07T13:39:24.473Z,12.53
2019-05-07T13:41:53.640Z,11.90
2019-05-07T13:44:22.877Z,11.30
2019-05-07T13:46:52.994Z,11.07
2019-05-07T13:49:21.999Z,11.70
2019-05-07T13:52:02.813Z,12.23
2019-05-07T13:54:21.827Z,10.37
2019-05-07T13:56:52.389Z,10.90
2019-05-07T13:59:22.253Z,10.43
2019-05-07T14:01:50.404Z,9.80
2019-05-07T14:04:18.826Z,10.57
2019-05-07T14:06:47.207Z,10.10
2019-05-07T14:09:15.505Z,10.20
2019-05-07T14:11:43.984Z,10.73
2019-05-07T14:14:12.480Z,10.13
2019-05-07T14:16:42.472Z,10.47
2019-05-07T14:19:12.895Z,9.53
2019-05-07T14:21:42.191Z,10.30
2019-05-07T14:24:12.349Z,11.80
2019-05-07T14:26:42.254Z,9.93
2019-05-07T14:29:10.877Z,11.03
2019-05-07T14:31:39.207Z,10.63
2019-05-07T14:34:07.525Z,10.57
2019-05-07T14:36:35.815Z,10.43
2019-05-07T14:39:05.398Z,10.30
2019-05-07T14:41:34.064Z,9.73
2019-05-07T14:44:02.952Z,10.00
2019-05-07T14:46:44.614Z,8.87
2019-05-07T14:49:02.775Z,9.70
2019-05-07T14:51:32.578Z,8.43
2019-05-07T14:54:01.769Z,8.80
2019-05-07T14:56:32.259Z,8.33
2019-05-07T14:59:02.255Z,8.50
2019-05-07T15:01:30.500Z,8.00
2019-05-07T15:03:58.992Z,7.67
2019-05-07T15:06:27.350Z,7.70
2019-05-07T15:08:55.738Z,8.23
2019-05-07T15:11:24.089Z,7.60
2019-05-07T15:13:52.460Z,7.87
2019-05-07T15:16:22.474Z,7.33
2019-05-07T15:18:52.843Z,7.43
2019-05-07T15:21:21.016Z,7.63
2019-05-07T15:23:49.517Z,6.90
2019-05-07T15:26:17.869Z,7.40
2019-05-07T15:28:46.269Z,8.00
2019-05-07T15:31:14.547Z,6.90
2019-05-07T15:33:42.973Z,7.03
2019-05-07T15:36:11.998Z,7.43
2019-05-07T15:38:40.415Z,7.63
2019-05-07T15:41:08.738Z,7.43
2019-05-07T15:43:37.161Z,8.17
2019-05-07T15:46:05.544Z,9.30
2019-05-07T15:48:34.051Z,8.80
2019-05-07T15:51:02.413Z,9.43
2019-05-07T15:53:32.391Z,9.40
2019-05-07T15:56:01.779Z,9.77
2019-05-07T15:58:30.254Z,10.87
2019-05-07T16:00:58.577Z,9.37
2019-05-07T16:03:28.420Z,10.13
2019-05-07T16:05:56.815Z,9.40
2019-05-07T16:08:25.173Z,8.73
2019-05-07T16:10:53.553Z,9.40
2019-05-07T16:13:22.472Z,9.23
2019-05-07T16:15:52.807Z,9.43
2019-05-07T16:18:23.680Z,10.20
2019-05-07T16:20:52.273Z,10.33
2019-05-07T16:23:22.069Z,9.23
2019-05-07T16:25:52.663Z,9.80
2019-05-07T16:28:21.908Z,9.63
2019-05-07T16:30:52.105Z,10.40
2019-05-07T16:33:20.755Z,10.33
2019-05-07T16:35:49.072Z,10.07
2019-05-07T16:38:18.123Z,10.90
2019-05-07T16:40:46.568Z,10.10
2019-05-07T16:43:14.956Z,10.33
2019-05-07T16:45:43.370Z,11.33
2019-05-07T16:48:12.069Z,10.10
2019-05-07T16:50:40.510Z,10.27
2019-05-07T16:53:08.994Z,10.03
2019-05-07T16:55:37.442Z,10.53
2019-05-07T16:58:05.940Z,9.60
2019-05-07T17:00:34.309Z,9.10
2019-05-07T17:03:02.725Z,9.10
2019-05-07T17:05:32.107Z,9.07
2019-05-07T17:08:02.471Z,9.40
2019-05-07T17:10:31.816Z,9.67
2019-05-07T17:13:00.390Z,8.70
2019-05-07T17:15:28.802Z,8.60
2019-05-07T17:17:57.191Z,8.13
2019-05-07T17:20:26.593Z,8.97
2019-05-07T17:22:55.181Z,8.87
2019-05-07T17:25:23.668Z,8.73
2019-05-07T17:27:52.154Z,8.43
2019-05-07T17:30:20.622Z,8.50
2019-05-07T17:32:49.105Z,8.27
2019-05-07T17:35:17.474Z,9.30
2019-05-07T17:37:46.763Z,9.83
2019-05-07T17:40:15.346Z,8.40
2019-05-07T17:42:43.882Z,9.63
2019-05-07T17:45:13.456Z,8.60
2019-05-07T17:47:42.453Z,9.13
2019-05-07T17:50:12.634Z,8.67
2019-05-07T17:52:41.822Z,7.77
2019-05-07T17:55:12.590Z,8.80
2019-05-07T17:57:41.774Z,8.50
2019-05-07T18:00:12.751Z,9.40
2019-05-07T18:02:42.171Z,9.10
2019-05-07T18:05:11.886Z,9.77
2019-05-07T18:07:42.062Z,9.53
2019-05-07T18:10:12.460Z,9.60
2019-05-07T18:12:42.507Z,10.40
2019-05-07T18:15:12.618Z,10.17
2019-05-07T18:17:42.042Z,9.90
2019-05-07T18:20:12.752Z,9.93
2019-05-07T18:22:40.754Z,9.77
2019-05-07T18:25:09.847Z,10.70
2019-05-07T18:27:38.815Z,9.90
2019-05-07T18:30:09.160Z,9.70
2019-05-07T18:32:37.578Z,9.83
2019-05-07T18:35:06.135Z,10.20
2019-05-07T18:37:34.547Z,10.57
2019-05-07T18:40:03.785Z,9.87
2019-05-07T18:42:32.675Z,9.57
2019-05-07T18:45:02.128Z,10.10
2019-05-07T18:47:32.982Z,11.23
2019-05-07T18:50:02.852Z,10.03
2019-05-07T18:52:31.959Z,9.53
2019-05-07T18:55:02.553Z,9.40
2019-05-07T18:57:32.668Z,9.70
2019-05-07T19:00:03.176Z,10.03
2019-05-07T19:02:31.935Z,9.43
2019-05-07T19:05:02.609Z,9.77
2019-05-07T19:07:32.329Z,9.53
2019-05-07T19:10:02.630Z,10.43
2019-05-07T19:12:32.782Z,9.30
2019-05-07T19:15:02.905Z,9.57
2019-05-07T19:17:32.354Z,9.77
2019-05-07T19:20:03.418Z,9.87
2019-05-07T19:22:33.044Z,9.30
2019-05-07T19:25:02.968Z,10.33
2019-05-07T19:27:32.826Z,9.77
2019-05-07T19:30:01.795Z,10.87
2019-05-07T19:32:32.252Z,10.40
2019-05-07T19:35:01.441Z,9.30
2019-05-07T19:37:31.888Z,10.30
2019-05-07T19:40:02.028Z,10.33
2019-05-07T19:42:31.902Z,10.90
2019-05-07T19:45:02.657Z,11.37
2019-05-07T19:47:32.734Z,10.73
2019-05-07T19:50:02.855Z,11.30
2019-05-07T19:52:33.147Z,11.10
2019-05-07T19:55:04.693Z,11.63
2019-05-07T19:57:33.244Z,10.47
2019-05-07T20:00:03.214Z,11.37
2019-05-07T20:02:32.251Z,12.30
2019-05-07T20:05:03.327Z,13.00
2019-05-07T20:07:32.347Z,11.93
2019-05-07T20:10:02.722Z,11.40
2019-05-07T20:12:33.303Z,11.57
2019-05-07T20:15:02.873Z,10.07
2019-05-07T20:17:34.041Z,10.73
2019-05-07T20:20:05.597Z,11.27
2019-05-07T20:22:34.605Z,11.00
2019-05-07T20:25:15.427Z,10.87
2019-05-07T20:27:34.874Z,10.73
2019-05-07T20:30:08.551Z,11.07
2019-05-07T20:32:40.184Z,10.57
2019-05-07T20:35:14.726Z,10.03
2019-05-07T20:37:42.401Z,10.83
2019-05-07T20:40:12.190Z,11.07
2019-05-07T20:42:42.830Z,9.10
2019-05-07T20:45:12.308Z,10.43
2019-05-07T20:47:42.099Z,10.27
2019-05-07T20:50:12.742Z,9.43
2019-05-07T20:52:41.907Z,9.40
2019-05-07T20:55:12.779Z,9.47
2019-05-07T20:57:42.754Z,9.03
2019-05-07T21:00:12.724Z,9.00
2019-05-07T21:02:47.829Z,10.23
2019-05-07T21:05:11.923Z,9.67
2019-05-07T21:07:42.540Z,9.77
2019-05-07T21:10:12.619Z,9.67
2019-05-07T21:12:42.378Z,9.03
2019-05-07T21:15:12.403Z,9.07
2019-05-07T21:17:42.781Z,8.67
2019-05-07T21:20:12.088Z,9.37
2019-05-07T21:22:42.445Z,9.10
2019-05-07T21:25:12.025Z,9.63
2019-05-07T21:27:43.006Z,9.37
2019-05-07T21:30:10.519Z,8.53
2019-05-07T21:32:38.789Z,9.53
2019-05-07T21:35:07.172Z,10.90
2019-05-07T21:37:35.456Z,9.87
2019-05-07T21:40:06.774Z,10.10
2019-05-07T21:42:35.091Z,9.50
2019-05-07T21:45:04.272Z,10.10
2019-05-07T21:47:32.760Z,10.00
2019-05-07T21:50:02.909Z,9.50
2019-05-07T21:52:32.893Z,9.93
2019-05-07T21:55:02.340Z,9.40
2019-05-07T21:57:32.848Z,10.37
2019-05-07T22:00:02.208Z,9.50
2019-05-07T22:02:32.681Z,8.90
2019-05-07T22:05:02.603Z,9.30
2019-05-07T22:07:30.784Z,9.53
2019-05-07T22:09:59.106Z,9.87
2019-05-07T22:12:27.549Z,10.13
2019-05-07T22:14:55.919Z,9.70
2019-05-07T22:17:24.305Z,9.50
2019-05-07T22:19:52.660Z,10.10
2019-05-07T22:22:23.983Z,9.43
2019-05-07T22:24:52.631Z,10.40
2019-05-07T22:27:22.130Z,9.93
2019-05-07T22:29:52.586Z,10.17
2019-05-07T22:32:22.367Z,9.80
2019-05-07T22:34:52.053Z,10.50
2019-05-07T22:37:22.007Z,8.93
2019-05-07T22:39:50.453Z,9.10
2019-05-07T22:42:18.824Z,8.57
2019-05-07T22:44:47.210Z,9.10
2019-05-07T22:47:15.495Z,9.10
2019-05-07T22:49:44.951Z,9.30
2019-05-07T22:52:13.365Z,8.20
2019-05-07T22:54:42.645Z,8.27
2019-05-07T22:57:13.958Z,9.07
2019-05-07T22:59:43.156Z,8.23
2019-05-07T23:02:12.232Z,7.90
2019-05-07T23:04:43.049Z,8.33
2019-05-07T23:07:12.712Z,8.17
2019-05-07T23:09:41.969Z,8.40
2019-05-07T23:12:12.418Z,8.07
2019-05-07T23:14:40.790Z,8.70
2019-05-07T23:17:09.221Z,7.90
2019-05-07T23:19:37.603Z,8.37
2019-05-07T23:22:05.983Z,7.40
2019-05-07T23:24:34.351Z,7.23
2019-05-07T23:27:02.632Z,7.27
2019-05-07T23:29:33.067Z,7.67
2019-05-07T23:32:01.932Z,6.17
2019-05-07T23:34:32.434Z,6.47
2019-05-07T23:37:02.409Z,6.30
2019-05-07T23:39:30.355Z,6.33
2019-05-07T23:41:58.650Z,6.63
2019-05-07T23:44:26.975Z,6.53
2019-05-07T23:46:55.346Z,6.50
2019-05-07T23:49:23.618Z,7.20
2019-05-07T23:51:52.996Z,7.20
2019-05-07T23:54:22.976Z,6.73
2019-05-07T23:57:04.957Z,6.43
2019-05-07T23:59:22.300Z,6.77
